Time;durP1;ratioP1;P1;durP2;ratioP2;P2;SDS_P1;SDS_P2;PMS_P1;PMS_P2;Temp;Humidity;BMP_temperature;BMP_pressure;BME280_temperature;BME280_humidity;BME280_pressure;Samples;Min_cycle;Max_cycle;Signal;HPM_P1;HPM_P2
2023/07/19 00:00:26;;;;;;;18.88;16.85;;;;;;;26.28;51.59;101209.81;20997256;28;20372;-80
2023/07/19 00:10:28;;;;;;;19.70;17.33;;;;;;;26.24;51.28;101200.38;20998253;28;20086;-81
2023/07/19 00:20:29;;;;;;;20.25;17.77;;;;;;;26.07;51.63;101194.53;21028771;28;20071;-80
2023/07/19 00:30:33;;;;;;;20.80;17.90;;;;;;;26.26;51.45;101217.75;21000648;28;20557;-80
2023/07/19 00:40:34;;;;;;;19.73;17.60;;;;;;;26.19;51.73;101233.31;20995050;28;20032;-81
2023/07/19 00:50:38;;;;;;;21.45;19.10;;;;;;;26.19;51.49;101250.97;20996244;28;20353;-80
2023/07/19 01:00:43;;;;;;;21.45;19.15;;;;;;;26.19;51.49;101262.19;20996961;28;20117;-80
2023/07/19 01:10:45;;;;;;;21.83;19.17;;;;;;;26.15;51.03;101272.34;20994489;28;20045;-80
2023/07/19 01:20:47;;;;;;;22.13;19.58;;;;;;;26.12;51.40;101289.81;20994335;28;20078;-77
2023/07/19 01:30:48;;;;;;;21.80;19.40;;;;;;;26.14;51.53;101309.97;20991369;28;20040;-80
2023/07/19 01:40:53;;;;;;;22.83;19.77;;;;;;;26.16;51.49;101334.88;20993620;28;20078;-80
2023/07/19 01:50:54;;;;;;;21.45;19.05;;;;;;;26.01;51.12;101327.56;20992516;28;20152;-80
2023/07/19 02:00:55;;;;;;;22.38;19.98;;;;;;;26.09;51.33;101347.34;20994753;28;20028;-80
2023/07/19 02:10:57;;;;;;;22.63;20.13;;;;;;;26.03;50.96;101373.00;21006046;28;20463;-81
2023/07/19 02:21:01;;;;;;;24.45;20.35;;;;;;;26.04;51.00;101386.69;21005243;28;20438;-80
2023/07/19 02:31:05;;;;;;;24.73;21.42;;;;;;;26.00;51.16;101390.41;21005802;28;20044;-84
2023/07/19 02:41:07;;;;;;;24.00;20.95;;;;;;;26.08;50.94;101401.78;21005649;28;20098;-84
2023/07/19 02:51:09;;;;;;;24.13;21.15;;;;;;;25.96;51.24;101404.22;21004424;28;20045;-81
2023/07/19 03:01:14;;;;;;;25.80;22.83;;;;;;;25.98;50.96;101409.50;21003464;28;20032;-80
2023/07/19 03:11:15;;;;;;;26.05;23.15;;;;;;;26.02;51.16;101433.81;21008359;28;20057;-81
2023/07/19 03:21:16;;;;;;;26.55;23.55;;;;;;;25.97;51.19;101414.28;21016035;28;20082;-79
2023/07/19 03:31:18;;;;;;;29.88;25.08;;;;;;;25.99;51.07;101426.03;21006069;28;20044;-80
2023/07/19 03:41:19;;;;;;;29.38;24.42;;;;;;;25.96;51.06;101426.63;20999384;28;20016;-81
2023/07/19 03:51:20;;;;;;;28.40;25.25;;;;;;;25.96;51.15;101435.06;20998319;28;20499;-80
2023/07/19 04:01:22;;;;;;;30.05;25.55;;;;;;;25.95;50.77;101446.59;20998403;28;20032;-80
2023/07/19 04:11:23;;;;;;;30.08;26.83;;;;;;;25.77;50.40;101407.03;21002686;28;20021;-80
2023/07/19 04:21:25;;;;;;;31.88;27.92;;;;;;;25.91;50.61;101435.13;20996351;28;20040;-81
2023/07/19 04:31:26;;;;;;;31.23;27.75;;;;;;;25.95;52.64;101390.50;20995560;28;20070;-79
2023/07/19 04:41:28;;;;;;;31.35;27.40;;;;;;;26.29;53.87;101391.03;20994806;28;20029;-78
2023/07/19 04:51:29;;;;;;;32.95;28.75;;;;;;;26.61;53.24;101389.38;20994696;28;20032;-81
2023/07/19 05:01:30;;;;;;;31.58;28.08;;;;;;;26.83;52.77;101409.16;21001496;28;20033;-80
2023/07/19 05:11:32;;;;;;;31.85;27.10;;;;;;;26.94;52.32;101383.69;21024280;28;20029;-80
2023/07/19 05:21:33;;;;;;;34.53;29.42;;;;;;;27.12;51.93;101385.59;21018485;28;20041;-81
2023/07/19 05:31:35;;;;;;;32.63;28.27;;;;;;;27.27;51.38;101387.28;21003919;28;20040;-79
2023/07/19 05:41:36;;;;;;;31.48;28.08;;;;;;;27.38;51.40;101387.88;21008198;28;20029;-79
2023/07/19 05:51:38;;;;;;;31.42;27.95;;;;;;;27.49;50.95;101372.44;21008137;28;20036;-80
2023/07/19 06:01:40;;;;;;;33.10;28.83;;;;;;;27.44;50.84;101367.75;21007931;28;20036;-81
2023/07/19 06:11:41;;;;;;;31.58;28.17;;;;;;;27.59;50.80;101372.22;21007031;28;20032;-80
2023/07/19 06:21:42;;;;;;;31.23;27.65;;;;;;;27.70;50.44;101384.88;21005521;28;20032;-80
2023/07/19 06:31:44;;;;;;;32.45;27.95;;;;;;;27.70;50.29;101359.59;21005631;28;20066;-81
2023/07/19 06:41:48;;;;;;;34.47;28.55;;;;;;;27.80;50.08;101359.38;21004804;28;20021;-81
2023/07/19 06:51:49;;;;;;;34.03;28.77;;;;;;;27.89;50.08;101375.47;21003389;28;20553;-81
2023/07/19 07:01:51;;;;;;;32.92;28.45;;;;;;;27.88;49.67;101380.28;21001971;28;20037;-80
2023/07/19 07:11:52;;;;;;;32.55;28.30;;;;;;;27.99;49.82;101392.09;21001424;28;20032;-80
2023/07/19 07:21:54;;;;;;;33.83;28.80;;;;;;;27.97;49.78;101377.53;21000056;28;20041;-80
2023/07/19 07:31:58;;;;;;;32.03;28.10;;;;;;;28.04;49.42;101378.78;20999417;28;20028;-80
2023/07/19 07:41:59;;;;;;;29.88;26.35;;;;;;;28.08;49.25;101390.19;21000201;28;20028;-79
2023/07/19 07:52:01;;;;;;;31.50;26.80;;;;;;;28.15;49.37;101381.31;20996819;28;20048;-81
2023/07/19 08:02:03;;;;;;;33.30;28.73;;;;;;;28.15;49.36;101381.31;20997884;28;20032;-80
2023/07/19 08:12:04;;;;;;;31.98;27.38;;;;;;;28.19;49.09;101388.81;20996208;28;20032;-81
2023/07/19 08:22:06;;;;;;;31.92;28.52;;;;;;;28.22;49.18;101396.59;20996083;28;20043;-80
2023/07/19 08:32:07;;;;;;;30.85;27.17;;;;;;;28.27;49.08;101382.41;20995720;28;20037;-80
2023/07/19 08:42:09;;;;;;;31.77;27.58;;;;;;;28.25;49.37;101378.25;20994799;28;20112;-80
2023/07/19 08:52:13;;;;;;;33.55;28.85;;;;;;;28.33;49.25;101385.91;20992798;28;20097;-80
2023/07/19 09:02:14;;;;;;;32.40;27.70;;;;;;;27.96;49.30;101319.63;20994072;28;20029;-81
2023/07/19 09:12:16;;;;;;;32.33;28.58;;;;;;;28.08;49.15;101333.94;20998743;28;20446;-81
2023/07/19 09:22:17;;;;;;;30.95;26.95;;;;;;;28.25;49.50;101398.75;21008201;28;20098;-82
2023/07/19 09:32:19;;;;;;;31.33;27.80;;;;;;;28.34;49.21;101505.78;21009597;28;20537;-80
2023/07/19 09:42:20;;;;;;;28.90;25.17;;;;;;;28.39;49.12;101530.19;21008461;28;20383;-80
2023/07/19 09:52:25;;;;;;;30.02;26.73;;;;;;;28.39;48.91;101510.50;21009281;28;20075;-84
2023/07/19 10:02:26;;;;;;;30.42;26.30;;;;;;;28.33;49.10;101499.31;21013045;28;20052;-84
2023/07/19 10:12:28;;;;;;;29.33;25.98;;;;;;;28.35;48.91;101516.75;21008193;28;20029;-83
2023/07/19 10:23:03;;;;;;;29.00;25.08;;;;;;;28.38;49.00;101534.16;21005901;28;20558;-84
2023/07/19 10:33:04;;;;;;;28.75;24.65;;;;;;;28.44;48.76;101499.09;21007486;28;20043;-85
2023/07/19 10:43:05;;;;;;;28.52;24.98;;;;;;;28.41;48.64;101480.03;21006268;28;20353;-81
2023/07/19 10:53:07;;;;;;;27.73;24.67;;;;;;;28.48;48.93;101500.97;21004007;28;20025;-82
2023/07/19 11:03:12;;;;;;;27.95;23.88;;;;;;;28.48;48.67;101503.78;21003796;28;20067;-82
2023/07/19 11:13:14;;;;;;;27.35;23.98;;;;;;;28.42;48.82;101496.63;21002614;28;20070;-82
2023/07/19 11:23:15;;;;;;;25.80;22.98;;;;;;;28.45;48.51;101497.94;21001398;28;20040;-84
2023/07/19 11:33:17;;;;;;;29.27;24.52;;;;;;;28.48;48.88;101483.25;21001803;28;20036;-82
2023/07/19 11:43:27;;;;;;;26.30;23.42;;;;;;;28.45;49.05;101483.88;20999193;28;20066;-81
2023/07/19 11:53:28;;;;;;;27.38;24.25;;;;;;;28.41;48.79;101465.94;21000280;28;20379;-82
2023/07/19 12:03:32;;;;;;;27.65;24.27;;;;;;;28.44;48.80;101476.59;20999038;28;20025;-82
2023/07/19 12:13:36;;;;;;;27.60;24.60;;;;;;;28.57;48.79;101503.84;21027464;28;20033;-82
2023/07/19 12:23:38;;;;;;;29.10;25.90;;;;;;;28.57;48.72;101512.28;20997185;28;20094;-80
2023/07/19 12:33:42;;;;;;;27.27;24.33;;;;;;;28.59;48.69;101508.00;20996986;28;20045;-81
2023/07/19 12:43:44;;;;;;;29.27;25.90;;;;;;;28.55;48.75;101507.00;20996038;28;20352;-79
2023/07/19 12:53:45;;;;;;;28.25;24.45;;;;;;;28.48;49.03;101528.28;20996147;28;20044;-79
2023/07/19 13:03:46;;;;;;;29.60;25.10;;;;;;;28.59;48.79;101557.84;20995228;28;20033;-81
2023/07/19 13:13:48;;;;;;;29.77;25.40;;;;;;;28.60;48.99;101567.97;20994778;28;20054;-81
2023/07/19 13:23:49;;;;;;;29.90;26.63;;;;;;;28.62;49.29;101599.44;20994156;28;20488;-83
2023/07/19 13:33:57;;;;;;;28.55;25.33;;;;;;;28.60;49.04;101615.84;20996531;28;20048;-84
2023/07/19 13:43:58;;;;;;;29.20;26.00;;;;;;;28.48;49.29;101607.13;20997125;28;20105;-84
2023/07/19 13:54:00;;;;;;;30.02;26.08;;;;;;;28.48;49.17;101596.69;21035945;28;20487;-80
2023/07/19 14:04:01;;;;;;;28.38;25.30;;;;;;;28.54;49.22;101594.56;21091176;28;20028;-80
2023/07/19 14:14:03;;;;;;;26.95;24.10;;;;;;;28.58;48.94;101584.34;21017449;28;20049;-82
2023/07/19 14:24:05;;;;;;;27.38;24.35;;;;;;;28.60;48.63;101571.63;21009009;28;20041;-80
2023/07/19 14:34:06;;;;;;;26.23;23.42;;;;;;;28.65;48.83;101567.03;21007447;28;20074;-81
2023/07/19 14:44:08;;;;;;;27.27;24.38;;;;;;;28.47;48.99;101532.25;21010415;28;20044;-81
2023/07/19 14:54:09;;;;;;;28.15;24.35;;;;;;;28.54;49.22;101527.81;21004965;28;20033;-81
2023/07/19 15:04:12;;;;;;;27.05;24.17;;;;;;;28.60;49.06;101537.84;21043398;28;20479;-80
2023/07/19 15:14:13;;;;;;;28.63;25.52;;;;;;;28.63;49.12;101539.16;21029722;28;20055;-80
2023/07/19 15:24:15;;;;;;;28.25;25.15;;;;;;;28.61;48.86;101550.75;21002232;28;20033;-80
2023/07/19 15:34:20;;;;;;;29.58;26.05;;;;;;;28.73;49.04;101552.19;21000525;28;20062;-80
2023/07/19 15:44:21;;;;;;;32.17;27.42;;;;;;;28.68;49.43;101555.94;21010911;28;20040;-75
2023/07/19 15:54:22;;;;;;;30.20;26.67;;;;;;;28.62;49.69;101540.31;21066698;28;20045;-78
2023/07/19 16:04:24;;;;;;;28.23;25.08;;;;;;;28.61;49.36;101544.28;21012748;28;20471;-79
2023/07/19 16:14:25;;;;;;;29.63;25.38;;;;;;;28.03;47.21;101567.56;20997371;28;20036;-79
2023/07/19 16:24:26;;;;;;;28.55;24.95;;;;;;;27.52;47.63;101577.00;21011385;28;20044;-79
2023/07/19 16:34:28;;;;;;;28.75;24.55;;;;;;;27.25;46.92;101564.59;21004346;28;20024;-81
2023/07/19 16:44:32;;;;;;;30.90;25.05;;;;;;;26.91;46.92;101519.97;21091579;28;20135;-80
2023/07/19 16:54:34;;;;;;;29.90;26.13;;;;;;;26.96;48.62;101533.09;21051607;28;20067;-79
2023/07/19 17:04:38;;;;;;;31.23;24.13;;;;;;;26.85;49.46;101510.81;21011828;28;20036;-81
2023/07/19 17:14:39;;;;;;;35.22;25.38;;;;;;;26.73;49.87;101484.34;21072644;28;20043;-78
2023/07/19 17:24:40;;;;;;;92.50;29.00;;;;;;;26.80;50.12;101502.47;21056148;28;20138;-77
2023/07/19 17:34:42;;;;;;;141.93;31.10;;;;;;;26.66;50.79;101465.06;21018282;28;20032;-80
2023/07/19 17:44:44;;;;;;;208.80;36.53;;;;;;;26.77;51.90;101486.22;21070052;28;20034;-78
2023/07/19 17:54:45;;;;;;;153.95;34.03;;;;;;;26.77;52.08;101503.06;21089347;28;20036;-77
2023/07/19 18:04:48;;;;;;;213.02;39.85;;;;;;;26.71;51.98;101481.84;21091194;28;20396;-81
2023/07/19 18:14:53;;;;;;;192.65;37.28;;;;;;;26.57;52.24;101480.94;21076370;28;20037;-79
2023/07/19 18:24:54;;;;;;;165.02;36.00;;;;;;;26.56;52.65;101476.50;21008205;28;20049;-79
2023/07/19 18:34:55;;;;;;;124.95;31.80;;;;;;;26.72;52.94;101494.75;21006550;28;20114;-82
2023/07/19 18:44:57;;;;;;;87.90;28.63;;;;;;;26.68;52.24;101481.63;21082379;28;20051;-81
2023/07/19 18:54:58;;;;;;;87.05;28.23;;;;;;;26.62;52.06;101472.47;21087210;28;20399;-81
2023/07/19 19:04:59;;;;;;;65.43;28.50;;;;;;;26.61;52.21;101456.75;21093475;28;20032;-82
2023/07/19 19:15:02;;;;;;;62.53;28.35;;;;;;;26.59;52.18;101453.44;21087771;28;20028;-78
2023/07/19 19:25:12;;;;;;;45.70;24.70;;;;;;;26.60;52.75;101439.06;21081461;28;20075;-82
2023/07/19 19:35:15;;;;;;;43.15;26.45;;;;;;;26.57;52.82;101427.63;21095262;28;20579;-79
2023/07/19 19:45:17;;;;;;;43.38;26.40;;;;;;;26.55;52.98;101410.28;21133587;28;20174;-78
2023/07/19 19:55:18;;;;;;;66.88;29.30;;;;;;;26.57;53.13;101413.59;21104480;28;20070;-80
2023/07/19 20:05:21;;;;;;;69.00;29.60;;;;;;;26.52;53.95;101422.09;21086048;28;20036;-78
2023/07/19 20:15:22;;;;;;;77.53;29.50;;;;;;;26.51;53.06;101424.09;21079180;28;20043;-79
2023/07/19 20:25:24;;;;;;;84.85;30.10;;;;;;;26.52;53.79;101438.94;21080333;28;20061;-80
2023/07/19 20:35:25;;;;;;;76.93;30.02;;;;;;;26.50;53.85;101405.59;21078941;28;20120;-80
2023/07/19 20:45:27;;;;;;;64.13;29.17;;;;;;;26.54;53.96;101408.63;21076069;28;20066;-80
2023/07/19 20:55:28;;;;;;;52.47;28.15;;;;;;;26.45;54.02;101404.84;21050531;28;20101;-81
2023/07/19 21:05:29;;;;;;;60.90;29.10;;;;;;;26.45;54.36;101374.81;21074536;28;20035;-81
2023/07/19 21:15:30;;;;;;;55.05;27.55;;;;;;;26.44;53.98;101359.13;21105677;28;20093;-81
2023/07/19 21:25:32;;;;;;;50.17;28.10;;;;;;;26.47;54.34;101352.03;21124195;28;20047;-82
2023/07/19 21:35:33;;;;;;;50.50;27.38;;;;;;;26.46;54.09;101347.56;21102267;28;20044;-79
2023/07/19 21:45:35;;;;;;;53.42;28.70;;;;;;;26.40;54.76;101312.31;21103434;28;20040;-78
2023/07/19 21:55:37;;;;;;;92.40;32.22;;;;;;;26.46;54.73;101320.34;21101482;28;20031;-76
2023/07/19 22:05:40;;;;;;;60.58;28.80;;;;;;;26.54;53.95;101327.22;21142614;28;20065;-76
2023/07/19 22:15:41;;;;;;;65.57;30.98;;;;;;;26.68;54.60;101350.53;21185198;28;20032;-76
2023/07/19 22:25:44;;;;;;;66.75;31.17;;;;;;;26.67;54.77;101346.06;21087017;28;20124;-77
2023/07/19 22:35:48;;;;;;;71.43;31.23;;;;;;;26.69;54.97;101349.38;21086981;28;20039;-74
2023/07/19 22:45:50;;;;;;;72.28;34.63;;;;;;;26.73;55.11;101369.25;21083473;28;20052;-75
2023/07/19 22:55:51;;;;;;;60.03;31.98;;;;;;;26.73;55.79;101366.44;21082810;28;20426;-78
2023/07/19 23:05:55;;;;;;;54.20;31.88;;;;;;;26.70;55.61;101359.44;21063962;28;20024;-75
2023/07/19 23:15:57;;;;;;;56.53;32.47;;;;;;;26.77;56.59;101385.16;21086723;28;20479;-78
2023/07/19 23:25:58;;;;;;;51.83;31.17;;;;;;;26.77;55.87;101381.53;21080805;28;20522;-77
2023/07/19 23:35:59;;;;;;;45.83;29.02;;;;;;;26.72;55.01;101385.25;21052158;28;20036;-79
2023/07/19 23:46:01;;;;;;;38.78;28.42;;;;;;;26.63;54.24;101400.31;21077122;28;20032;-74
2023/07/19 23:56:02;;;;;;;37.22;26.55;;;;;;;26.60;53.89;101421.41;21061359;28;20502;-73
